Time;durP1;ratioP1;P1;durP2;ratioP2;P2;SDS_P1;SDS_P2;PMS_P1;PMS_P2;Temp;Humidity;BMP_temperature;BMP_pressure;BME280_temperature;BME280_humidity;BME280_pressure;Samples;Min_cycle;Max_cycle;Signal;HPM_P1;HPM_P2
2023/12/02 00:02:26;;;;;;;11.23;5.05;;;;;;;;;;5014806;28;20060;-67
2023/12/02 00:05:12;;;;;;;10.25;5.38;;;;;;;;;;5014258;28;20026;-67
2023/12/02 00:07:57;;;;;;;11.88;6.00;;;;;;;;;;5048859;23;20419;-71
2023/12/02 00:10:44;;;;;;;14.02;6.25;;;;;;;;;;5033451;28;20569;-71
2023/12/02 00:13:30;;;;;;;11.40;6.82;;;;;;;;;;5020917;28;20076;-71
2023/12/02 00:16:15;;;;;;;8.70;5.10;;;;;;;;;;5023534;28;20086;-71
2023/12/02 00:19:01;;;;;;;11.00;4.18;;;;;;;;;;4999856;28;20506;-71
2023/12/02 00:21:46;;;;;;;17.70;5.60;;;;;;;;;;5003833;28;20062;-71
2023/12/02 00:24:32;;;;;;;14.00;5.85;;;;;;;;;;4999209;28;20026;-71
2023/12/02 00:27:18;;;;;;;12.50;5.25;;;;;;;;;;4993495;28;20029;-71
2023/12/02 00:30:05;;;;;;;11.18;5.30;;;;;;;;;;5004023;28;20023;-71
2023/12/02 00:32:50;;;;;;;12.75;6.13;;;;;;;;;;4994425;28;20026;-71
2023/12/02 00:35:36;;;;;;;12.90;5.57;;;;;;;;;;4994084;28;20022;-71
2023/12/02 00:38:22;;;;;;;12.60;5.18;;;;;;;;;;4994419;28;20088;-71
2023/12/02 00:41:10;;;;;;;13.20;4.65;;;;;;;;;;4993734;28;20030;-71
2023/12/02 00:43:56;;;;;;;15.48;5.78;;;;;;;;;;4996293;28;20029;-71
2023/12/02 00:46:42;;;;;;;11.68;5.63;;;;;;;;;;5002800;28;20030;-69
2023/12/02 00:49:27;;;;;;;12.80;5.82;;;;;;;;;;4993475;28;20408;-69
2023/12/02 00:52:13;;;;;;;11.50;5.80;;;;;;;;;;4994152;28;20065;-69
2023/12/02 00:54:59;;;;;;;14.40;5.13;;;;;;;;;;4994319;28;20113;-69
2023/12/02 00:57:44;;;;;;;9.40;4.70;;;;;;;;;;5008362;28;20025;-69
2023/12/02 01:00:30;;;;;;;9.90;4.63;;;;;;;;;;5013559;28;20014;-69
2023/12/02 01:03:16;;;;;;;9.40;4.60;;;;;;;;;;5014538;28;20483;-69
2023/12/02 01:06:01;;;;;;;12.98;5.63;;;;;;;;;;5012930;28;20017;-69
2023/12/02 01:08:47;;;;;;;14.30;5.68;;;;;;;;;;5012622;28;20037;-69
2023/12/02 01:11:32;;;;;;;11.05;5.40;;;;;;;;;;5013501;28;20117;-69
2023/12/02 01:14:18;;;;;;;9.68;5.32;;;;;;;;;;5014532;28;20382;-69
2023/12/02 01:17:04;;;;;;;13.27;5.00;;;;;;;;;;4999522;28;20022;-69
2023/12/02 01:19:49;;;;;;;14.77;5.25;;;;;;;;;;5014213;28;20025;-69
2023/12/02 01:22:35;;;;;;;14.50;5.57;;;;;;;;;;5013424;28;20029;-69
2023/12/02 01:25:21;;;;;;;8.52;4.57;;;;;;;;;;5014305;28;20022;-69
2023/12/02 01:28:07;;;;;;;11.52;5.13;;;;;;;;;;5012836;28;20506;-69
2023/12/02 01:30:52;;;;;;;11.38;5.40;;;;;;;;;;5013863;28;20112;-69
2023/12/02 01:33:38;;;;;;;8.13;5.18;;;;;;;;;;5014094;28;20034;-69
2023/12/02 01:36:24;;;;;;;13.30;5.53;;;;;;;;;;5013419;28;20025;-69
2023/12/02 01:39:12;;;;;;;10.63;5.30;;;;;;;;;;5012462;28;20026;-69
2023/12/02 01:41:57;;;;;;;10.80;6.00;;;;;;;;;;5013206;28;20026;-69
2023/12/02 01:44:43;;;;;;;9.70;4.90;;;;;;;;;;5013827;28;20034;-69
2023/12/02 01:47:29;;;;;;;11.55;5.18;;;;;;;;;;4999107;28;20018;-69
2023/12/02 01:50:15;;;;;;;9.10;5.35;;;;;;;;;;5012961;28;20506;-69
2023/12/02 01:53:01;;;;;;;12.18;5.40;;;;;;;;;;4998154;28;20502;-69
2023/12/02 01:55:47;;;;;;;18.30;5.15;;;;;;;;;;5013722;28;20022;-69
2023/12/02 01:58:32;;;;;;;11.52;4.97;;;;;;;;;;4998997;28;20064;-69
2023/12/02 02:01:18;;;;;;;13.40;5.18;;;;;;;;;;5013982;28;20022;-69
2023/12/02 02:04:04;;;;;;;10.88;4.85;;;;;;;;;;4998274;28;20562;-69
2023/12/02 02:06:49;;;;;;;12.40;6.18;;;;;;;;;;5012230;28;20585;-69
2023/12/02 02:09:45;;;;;;;8.98;4.43;;;;;;;;;;5013302;28;20026;-69
2023/12/02 02:12:30;;;;;;;11.00;4.47;;;;;;;;;;4998817;28;20018;-69
2023/12/02 02:15:16;;;;;;;10.32;4.53;;;;;;;;;;5013358;28;20483;-69
2023/12/02 02:18:02;;;;;;;12.63;5.35;;;;;;;;;;5013459;28;20049;-69
2023/12/02 02:20:50;;;;;;;10.52;4.65;;;;;;;;;;4998851;28;20562;-69
2023/12/02 02:23:35;;;;;;;8.70;4.32;;;;;;;;;;5013966;28;20026;-69
2023/12/02 02:26:21;;;;;;;8.23;4.32;;;;;;;;;;5013314;28;20033;-69
2023/12/02 02:29:07;;;;;;;13.20;5.20;;;;;;;;;;5013425;28;20483;-69
2023/12/02 02:31:52;;;;;;;12.32;6.05;;;;;;;;;;5012184;28;20033;-69
2023/12/02 02:34:40;;;;;;;13.68;5.70;;;;;;;;;;5011304;28;20022;-69
2023/12/02 02:37:25;;;;;;;14.02;5.15;;;;;;;;;;5013779;28;20398;-69
2023/12/02 02:40:11;;;;;;;10.50;4.80;;;;;;;;;;5013306;28;20022;-69
2023/12/02 02:42:57;;;;;;;9.02;4.95;;;;;;;;;;5013496;28;20119;-69
2023/12/02 02:45:43;;;;;;;9.00;5.10;;;;;;;;;;5013226;28;20116;-69
2023/12/02 02:48:53;;;;;;;10.85;5.78;;;;;;;;;;5011950;28;20057;-69
2023/12/02 02:51:39;;;;;;;7.47;4.20;;;;;;;;;;5016624;28;20022;-69
2023/12/02 02:54:25;;;;;;;17.13;5.85;;;;;;;;;;5016443;28;20057;-69
2023/12/02 02:57:10;;;;;;;19.00;5.15;;;;;;;;;;5016181;28;20022;-69
2023/12/02 02:59:56;;;;;;;17.00;5.78;;;;;;;;;;5017024;28;20168;-69
2023/12/02 03:02:42;;;;;;;11.00;5.13;;;;;;;;;;5016297;28;20077;-69
2023/12/02 03:05:27;;;;;;;9.48;4.20;;;;;;;;;;5015594;28;20088;-69
2023/12/02 03:08:13;;;;;;;15.43;5.18;;;;;;;;;;5015481;28;20038;-69
2023/12/02 03:10:58;;;;;;;10.43;4.82;;;;;;;;;;5002445;28;20022;-69
2023/12/02 03:13:44;;;;;;;11.73;6.22;;;;;;;;;;5001237;28;20048;-69
2023/12/02 03:16:30;;;;;;;9.13;3.88;;;;;;;;;;5016395;28;20026;-69
2023/12/02 03:19:18;;;;;;;12.88;5.32;;;;;;;;;;5016476;28;20025;-69
2023/12/02 03:22:04;;;;;;;9.07;4.43;;;;;;;;;;5015816;28;20026;-69
2023/12/02 03:24:49;;;;;;;9.50;4.40;;;;;;;;;;5013901;28;20033;-69
2023/12/02 03:27:35;;;;;;;9.40;4.32;;;;;;;;;;5016271;28;20057;-69
2023/12/02 03:30:21;;;;;;;12.07;4.78;;;;;;;;;;5015355;28;20077;-69
2023/12/02 03:33:06;;;;;;;13.88;4.97;;;;;;;;;;5014402;28;20022;-69
2023/12/02 03:35:52;;;;;;;14.02;4.97;;;;;;;;;;5001632;28;20032;-69
2023/12/02 03:38:39;;;;;;;10.75;4.95;;;;;;;;;;5013669;28;20030;-69
2023/12/02 03:41:24;;;;;;;14.80;5.32;;;;;;;;;;5015192;28;20044;-69
2023/12/02 03:44:10;;;;;;;10.80;4.97;;;;;;;;;;5015963;28;20022;-69
2023/12/02 03:46:55;;;;;;;9.18;4.95;;;;;;;;;;5015820;28;20025;-69
2023/12/02 03:49:41;;;;;;;10.32;4.72;;;;;;;;;;5015140;28;20026;-69
2023/12/02 03:52:27;;;;;;;12.20;5.10;;;;;;;;;;5015789;28;20488;-69
2023/12/02 03:55:13;;;;;;;12.48;5.22;;;;;;;;;;5014519;28;20076;-69
2023/12/02 03:57:59;;;;;;;10.57;4.55;;;;;;;;;;5014474;28;20104;-69
2023/12/02 04:00:44;;;;;;;10.90;5.38;;;;;;;;;;5013152;28;20014;-69
2023/12/02 04:03:30;;;;;;;15.55;5.20;;;;;;;;;;5014477;28;20067;-69
2023/12/02 04:06:16;;;;;;;11.55;5.13;;;;;;;;;;5015764;28;20022;-69
2023/12/02 04:09:01;;;;;;;14.90;5.93;;;;;;;;;;5015187;28;20490;-69
2023/12/02 04:11:48;;;;;;;11.35;5.28;;;;;;;;;;5015364;28;20048;-69
2023/12/02 04:14:33;;;;;;;8.93;4.07;;;;;;;;;;5013746;28;20487;-69
2023/12/02 04:17:19;;;;;;;11.55;5.10;;;;;;;;;;5015263;28;20384;-69
2023/12/02 04:20:08;;;;;;;11.15;4.80;;;;;;;;;;5015338;28;20125;-69
2023/12/02 04:22:54;;;;;;;8.07;4.82;;;;;;;;;;4999634;28;20018;-69
2023/12/02 04:25:40;;;;;;;11.23;5.18;;;;;;;;;;5013749;28;20028;-69
2023/12/02 04:28:25;;;;;;;12.18;5.10;;;;;;;;;;5014206;28;20021;-69
2023/12/02 04:31:11;;;;;;;10.57;4.25;;;;;;;;;;5014944;28;20026;-69
2023/12/02 04:33:56;;;;;;;11.23;5.75;;;;;;;;;;5014477;28;20110;-69
2023/12/02 04:36:43;;;;;;;9.75;4.45;;;;;;;;;;5000977;28;20022;-69
2023/12/02 04:39:29;;;;;;;11.02;4.35;;;;;;;;;;5014324;28;20029;-69
2023/12/02 04:42:14;;;;;;;8.93;4.70;;;;;;;;;;5014062;28;20022;-69
2023/12/02 04:45:00;;;;;;;12.57;4.47;;;;;;;;;;5013605;28;20096;-69
2023/12/02 04:47:46;;;;;;;8.70;3.97;;;;;;;;;;5014731;28;20030;-69
2023/12/02 04:50:31;;;;;;;8.27;3.88;;;;;;;;;;5013327;28;20181;-69
2023/12/02 04:53:17;;;;;;;8.13;3.70;;;;;;;;;;5013438;28;20056;-69
2023/12/02 04:56:03;;;;;;;8.73;4.63;;;;;;;;;;5013643;28;20022;-69
2023/12/02 04:58:49;;;;;;;13.95;6.50;;;;;;;;;;5013725;28;20026;-69
2023/12/02 05:01:34;;;;;;;13.57;8.10;;;;;;;;;;5014339;28;20053;-69
2023/12/02 05:04:20;;;;;;;11.55;5.22;;;;;;;;;;5014448;28;20029;-69
2023/12/02 05:07:06;;;;;;;8.10;5.45;;;;;;;;;;4999286;28;20034;-69
2023/12/02 05:09:52;;;;;;;13.63;5.07;;;;;;;;;;5013779;28;20026;-69
2023/12/02 05:12:37;;;;;;;23.95;9.68;;;;;;;;;;5012636;28;20531;-69
2023/12/02 05:15:23;;;;;;;9.00;4.95;;;;;;;;;;5014342;28;20026;-69
2023/12/02 05:18:09;;;;;;;11.65;4.32;;;;;;;;;;5013331;28;20026;-69
2023/12/02 05:20:54;;;;;;;7.90;4.72;;;;;;;;;;5014423;28;20033;-69
2023/12/02 05:23:40;;;;;;;9.07;4.80;;;;;;;;;;5013511;28;20105;-69
2023/12/02 05:26:26;;;;;;;9.98;4.78;;;;;;;;;;5014030;28;20022;-69
2023/12/02 05:29:11;;;;;;;9.20;5.30;;;;;;;;;;5014020;28;20025;-69
2023/12/02 05:31:57;;;;;;;15.35;6.07;;;;;;;;;;5012324;28;20029;-69
2023/12/02 05:34:43;;;;;;;10.82;4.63;;;;;;;;;;5013624;28;20073;-69
2023/12/02 05:37:29;;;;;;;13.00;4.78;;;;;;;;;;4999535;28;20047;-69
2023/12/02 05:40:15;;;;;;;8.73;4.07;;;;;;;;;;5000093;28;20022;-69
2023/12/02 05:43:00;;;;;;;7.13;3.78;;;;;;;;;;5002376;28;20022;-69
2023/12/02 05:45:46;;;;;;;12.95;5.32;;;;;;;;;;4993330;28;20105;-69
2023/12/02 05:48:31;;;;;;;45.00;16.40;;;;;;;;;;4992480;28;20026;-69
2023/12/02 05:51:17;;;;;;;51.92;19.20;;;;;;;;;;4993129;28;20085;-69
2023/12/02 05:54:03;;;;;;;53.67;17.30;;;;;;;;;;4992901;28;20506;-69
2023/12/02 05:56:48;;;;;;;40.30;15.45;;;;;;;;;;4992847;28;20437;-69
2023/12/02 05:59:34;;;;;;;18.00;7.82;;;;;;;;;;4998132;28;20073;-69
2023/12/02 06:02:19;;;;;;;27.75;10.73;;;;;;;;;;5004360;28;20029;-69
2023/12/02 06:05:06;;;;;;;23.27;11.57;;;;;;;;;;5011051;28;20084;-69
2023/12/02 06:07:51;;;;;;;22.90;9.98;;;;;;;;;;5011631;28;20029;-69
2023/12/02 06:10:38;;;;;;;21.65;8.05;;;;;;;;;;5037490;23;20141;-69
2023/12/02 06:13:23;;;;;;;13.35;7.07;;;;;;;;;;5013447;28;20026;-69
2023/12/02 06:16:09;;;;;;;15.65;6.57;;;;;;;;;;5025089;28;20022;-69
2023/12/02 06:18:55;;;;;;;10.23;5.53;;;;;;;;;;5032347;28;20388;-69
2023/12/02 06:21:41;;;;;;;19.90;8.48;;;;;;;;;;5024070;28;20076;-69
2023/12/02 06:24:26;;;;;;;14.32;7.60;;;;;;;;;;5027249;28;20030;-69
2023/12/02 06:27:12;;;;;;;15.52;5.72;;;;;;;;;;5016869;28;20022;-69
2023/12/02 06:29:57;;;;;;;17.05;6.63;;;;;;;;;;5015338;28;20049;-69
2023/12/02 06:32:43;;;;;;;15.25;6.07;;;;;;;;;;5002938;28;20026;-69
2023/12/02 06:35:29;;;;;;;11.68;5.85;;;;;;;;;;5015548;28;20033;-69
2023/12/02 06:38:14;;;;;;;11.38;5.22;;;;;;;;;;5017074;28;20030;-69
2023/12/02 06:41:00;;;;;;;9.50;6.30;;;;;;;;;;5016762;28;20018;-69
2023/12/02 06:43:46;;;;;;;11.77;7.03;;;;;;;;;;5016761;28;20537;-68
2023/12/02 06:46:31;;;;;;;14.73;7.30;;;;;;;;;;5014684;28;20026;-69
2023/12/02 06:49:17;;;;;;;13.65;6.00;;;;;;;;;;5001815;28;20130;-69
2023/12/02 06:52:03;;;;;;;15.55;6.35;;;;;;;;;;5016789;28;20029;-68
2023/12/02 06:54:48;;;;;;;15.10;6.43;;;;;;;;;;5002103;28;20033;-69
2023/12/02 06:57:34;;;;;;;11.27;6.70;;;;;;;;;;5015674;28;20018;-69
2023/12/02 07:00:20;;;;;;;25.70;10.23;;;;;;;;;;5016864;28;20021;-69
2023/12/02 07:03:08;;;;;;;23.73;9.73;;;;;;;;;;5016157;28;20503;-68
2023/12/02 07:05:54;;;;;;;16.90;6.15;;;;;;;;;;5002440;28;20072;-68
2023/12/02 07:08:40;;;;;;;17.05;7.40;;;;;;;;;;5015645;28;20025;-69
2023/12/02 07:11:26;;;;;;;39.13;11.40;;;;;;;;;;5017128;28;20180;-69
2023/12/02 07:14:11;;;;;;;37.92;13.88;;;;;;;;;;5000896;28;20080;-68
2023/12/02 07:16:57;;;;;;;26.55;9.55;;;;;;;;;;5016184;28;20033;-69
2023/12/02 07:19:43;;;;;;;34.72;13.35;;;;;;;;;;5015570;28;20084;-69
2023/12/02 07:22:28;;;;;;;25.05;9.82;;;;;;;;;;5014828;28;20487;-68
2023/12/02 07:25:14;;;;;;;28.60;11.13;;;;;;;;;;4996080;28;20065;-68
2023/12/02 07:27:59;;;;;;;37.33;14.38;;;;;;;;;;5004001;28;20479;-69
2023/12/02 07:30:45;;;;;;;37.83;14.02;;;;;;;;;;4999902;28;20053;-68
2023/12/02 07:33:31;;;;;;;68.20;24.48;;;;;;;;;;5014846;28;20030;-69
2023/12/02 07:36:16;;;;;;;49.42;18.80;;;;;;;;;;5013580;28;20026;-68
2023/12/02 07:39:02;;;;;;;42.20;13.55;;;;;;;;;;5014586;28;20026;-69
2023/12/02 07:41:49;;;;;;;36.58;14.30;;;;;;;;;;5014541;28;20018;-69
2023/12/02 07:44:35;;;;;;;33.88;12.70;;;;;;;;;;4995884;28;20022;-68
2023/12/02 07:47:20;;;;;;;17.80;7.57;;;;;;;;;;5014482;28;20037;-68
2023/12/02 07:50:07;;;;;;;19.95;6.85;;;;;;;;;;5015023;28;20036;-69
2023/12/02 07:52:53;;;;;;;7.20;4.25;;;;;;;;;;5015520;28;20080;-69
2023/12/02 07:55:39;;;;;;;9.43;4.82;;;;;;;;;;5014983;28;20026;-69
2023/12/02 07:58:24;;;;;;;11.80;4.05;;;;;;;;;;5014963;28;20499;-69
2023/12/02 08:01:10;;;;;;;11.15;5.63;;;;;;;;;;5000445;28;20398;-69
2023/12/02 08:03:56;;;;;;;12.63;6.88;;;;;;;;;;5000472;28;20026;-69
2023/12/02 08:06:41;;;;;;;16.63;6.88;;;;;;;;;;5029541;28;20025;-69
2023/12/02 08:09:27;;;;;;;16.08;7.18;;;;;;;;;;5019043;28;20049;-69
2023/12/02 08:12:13;;;;;;;24.90;9.05;;;;;;;;;;5025086;28;20037;-69
2023/12/02 08:15:00;;;;;;;15.45;7.97;;;;;;;;;;5033144;28;20033;-69
2023/12/02 08:17:46;;;;;;;12.23;6.72;;;;;;;;;;5029684;28;20029;-69
2023/12/02 08:20:32;;;;;;;14.05;7.00;;;;;;;;;;5014855;28;20022;-69
2023/12/02 08:23:18;;;;;;;17.80;7.15;;;;;;;;;;5014259;28;20164;-69
2023/12/02 08:26:04;;;;;;;15.65;8.07;;;;;;;;;;5015031;28;20056;-69
2023/12/02 08:28:50;;;;;;;12.55;5.88;;;;;;;;;;5000934;28;20026;-69
2023/12/02 08:31:35;;;;;;;17.38;8.88;;;;;;;;;;5020247;28;20029;-69
2023/12/02 08:34:21;;;;;;;19.92;7.18;;;;;;;;;;5014421;28;20077;-69
2023/12/02 08:37:06;;;;;;;13.10;6.45;;;;;;;;;;5016163;28;20495;-68
2023/12/02 08:39:52;;;;;;;14.10;6.43;;;;;;;;;;5016150;28;20059;-69
2023/12/02 08:42:38;;;;;;;12.65;5.55;;;;;;;;;;4999622;28;20423;-69
2023/12/02 08:45:23;;;;;;;19.52;7.25;;;;;;;;;;5013951;28;20025;-69
2023/12/02 08:48:09;;;;;;;26.38;9.73;;;;;;;;;;5020628;28;20032;-68
2023/12/02 08:50:55;;;;;;;18.13;7.43;;;;;;;;;;5031590;28;20508;-69
2023/12/02 08:53:40;;;;;;;21.02;7.95;;;;;;;;;;5022844;28;20030;-69
2023/12/02 08:56:28;;;;;;;18.10;8.13;;;;;;;;;;5014443;28;20060;-68
2023/12/02 08:59:13;;;;;;;17.10;8.15;;;;;;;;;;5014619;28;20057;-68
2023/12/02 09:01:59;;;;;;;15.77;7.10;;;;;;;;;;4993630;28;20388;-68
2023/12/02 09:04:44;;;;;;;20.27;7.43;;;;;;;;;;4998099;28;20031;-68
2023/12/02 09:07:30;;;;;;;13.27;7.45;;;;;;;;;;5014042;28;20088;-69
2023/12/02 09:10:16;;;;;;;23.83;7.22;;;;;;;;;;5012667;28;20030;-68
2023/12/02 09:13:23;;;;;;;30.30;9.30;;;;;;;;;;4998553;28;20026;-69
2023/12/02 09:16:30;;;;;;;35.75;10.38;;;;;;;;;;5013912;28;20029;-68
2023/12/02 09:19:38;;;;;;;16.73;6.68;;;;;;;;;;4994008;28;20053;-69
2023/12/02 09:22:44;;;;;;;12.32;6.47;;;;;;;;;;4999334;28;20021;-69
2023/12/02 09:25:34;;;;;;;14.63;6.50;;;;;;;;;;5013721;28;20507;-69
2023/12/02 09:28:21;;;;;;;12.77;6.35;;;;;;;;;;4997592;28;20483;-69
2023/12/02 09:31:08;;;;;;;15.57;8.20;;;;;;;;;;5013654;28;20032;-68
2023/12/02 09:33:59;;;;;;;8.32;4.53;;;;;;;;;;5013284;28;20033;-68
2023/12/02 09:36:45;;;;;;;6.47;4.47;;;;;;;;;;4997154;28;20042;-68
2023/12/02 09:40:19;;;;;;;9.90;5.10;;;;;;;;;;5014338;28;20487;-68
2023/12/02 09:43:15;;;;;;;9.48;5.43;;;;;;;;;;4993647;28;20124;-68
2023/12/02 09:46:27;;;;;;;13.35;5.78;;;;;;;;;;4982855;28;20491;-69
2023/12/02 09:49:33;;;;;;;7.95;5.05;;;;;;;;;;4965643;28;20026;-68
2023/12/02 09:52:47;;;;;;;10.68;4.82;;;;;;;;;;4985548;28;20454;-68
2023/12/02 09:55:38;;;;;;;9.52;5.55;;;;;;;;;;5012544;28;20407;-68
2023/12/02 09:58:27;;;;;;;16.35;5.30;;;;;;;;;;4997651;28;20014;-68
2023/12/02 10:01:38;;;;;;;9.63;5.38;;;;;;;;;;5011930;28;20022;-68
2023/12/02 10:04:45;;;;;;;12.68;6.57;;;;;;;;;;4996026;28;20452;-67
2023/12/02 10:07:34;;;;;;;12.15;5.85;;;;;;;;;;4993799;28;20026;-68
2023/12/02 10:10:22;;;;;;;12.98;7.22;;;;;;;;;;4997119;28;20026;-67
2023/12/02 10:13:19;;;;;;;12.50;7.00;;;;;;;;;;4986421;28;20025;-67
2023/12/02 10:16:10;;;;;;;10.75;5.45;;;;;;;;;;4989143;28;20380;-68
2023/12/02 10:18:59;;;;;;;16.92;9.25;;;;;;;;;;4997623;28;20504;-67
2023/12/02 10:21:45;;;;;;;18.58;10.65;;;;;;;;;;5001865;28;20014;-68
2023/12/02 10:24:40;;;;;;;24.23;11.50;;;;;;;;;;5009514;28;20061;-67
2023/12/02 10:27:28;;;;;;;17.08;9.20;;;;;;;;;;4992221;28;20062;-68
2023/12/02 10:30:18;;;;;;;14.45;7.53;;;;;;;;;;4984996;28;20395;-69
2023/12/02 10:33:12;;;;;;;14.10;6.22;;;;;;;;;;5031764;28;20031;-68
2023/12/02 10:36:03;;;;;;;15.75;6.40;;;;;;;;;;5017043;28;20026;-68
2023/12/02 10:39:05;;;;;;;13.00;7.40;;;;;;;;;;4992736;28;20551;-68
2023/12/02 10:42:05;;;;;;;18.42;6.65;;;;;;;;;;4986074;28;20022;-68
2023/12/02 10:45:05;;;;;;;17.80;6.68;;;;;;;;;;5012804;28;20022;-68
2023/12/02 10:47:52;;;;;;;10.02;6.13;;;;;;;;;;4998388;28;20030;-68
2023/12/02 10:50:39;;;;;;;16.25;6.70;;;;;;;;;;5012380;28;20100;-68
2023/12/02 10:53:26;;;;;;;15.27;6.85;;;;;;;;;;4996745;28;20414;-68
2023/12/02 10:56:21;;;;;;;14.15;6.85;;;;;;;;;;5016905;28;20095;-68
2023/12/02 10:59:08;;;;;;;10.75;6.32;;;;;;;;;;5015853;28;20080;-68
2023/12/02 11:02:17;;;;;;;12.35;7.38;;;;;;;;;;4995269;28;20022;-68
2023/12/02 11:05:24;;;;;;;15.90;8.07;;;;;;;;;;5011521;28;20045;-68
2023/12/02 11:08:18;;;;;;;11.23;6.20;;;;;;;;;;4997564;28;20026;-68
2023/12/02 11:11:06;;;;;;;12.65;5.93;;;;;;;;;;5014301;28;20618;-68
2023/12/02 11:13:54;;;;;;;7.75;5.07;;;;;;;;;;4999117;28;20407;-68
2023/12/02 11:16:58;;;;;;;9.35;5.55;;;;;;;;;;5000961;28;20395;-70
2023/12/02 11:19:55;;;;;;;10.88;6.30;;;;;;;;;;5015304;28;20030;-69
2023/12/02 11:23:07;;;;;;;6.65;4.80;;;;;;;;;;4985557;28;20034;-68
2023/12/02 11:26:13;;;;;;;16.27;6.90;;;;;;;;;;5013844;28;20514;-68
2023/12/02 11:29:29;;;;;;;13.82;7.20;;;;;;;;;;5001128;28;20021;-68
2023/12/02 11:32:39;;;;;;;10.90;7.25;;;;;;;;;;5001244;28;20033;-68
2023/12/02 11:35:25;;;;;;;;;;;;;;;;;;5017161;28;20109;-68
2023/12/02 11:38:18;;;;;;;11.23;6.72;;;;;;;;;;5001139;28;19968;-68
2023/12/02 11:41:25;;;;;;;15.00;7.97;;;;;;;;;;5014910;28;20072;-68
2023/12/02 11:44:28;;;;;;;12.88;7.32;;;;;;;;;;5010766;28;20025;-68
2023/12/02 11:47:27;;;;;;;14.55;7.07;;;;;;;;;;4999964;28;20055;-68
2023/12/02 11:50:28;;;;;;;11.90;7.00;;;;;;;;;;5001011;28;20413;-69
2023/12/02 11:53:42;;;;;;;11.00;6.65;;;;;;;;;;5000843;28;20022;-70
2023/12/02 11:56:27;;;;;;;14.13;7.68;;;;;;;;;;5015950;28;20050;-68
2023/12/02 11:59:20;;;;;;;15.70;6.63;;;;;;;;;;5014576;28;20025;-68
2023/12/02 12:02:36;;;;;;;18.92;8.00;;;;;;;;;;4999896;28;20502;-68
2023/12/02 12:05:33;;;;;;;16.48;6.32;;;;;;;;;;4993446;28;20032;-68
2023/12/02 12:08:20;;;;;;;13.05;6.18;;;;;;;;;;5008717;28;20034;-68
2023/12/02 12:11:10;;;;;;;20.73;8.55;;;;;;;;;;4997468;28;20113;-68
2023/12/02 12:13:56;;;;;;;18.15;7.72;;;;;;;;;;4985051;28;20036;-68
2023/12/02 12:16:42;;;;;;;11.98;6.45;;;;;;;;;;5036480;23;20017;-67
2023/12/02 12:19:28;;;;;;;19.25;8.90;;;;;;;;;;5026320;28;20022;-67
2023/12/02 12:22:14;;;;;;;14.40;6.72;;;;;;;;;;5009894;28;20079;-67
2023/12/02 12:25:00;;;;;;;23.23;11.35;;;;;;;;;;5001903;28;20104;-67
2023/12/02 12:27:45;;;;;;;21.35;10.70;;;;;;;;;;4994947;28;20026;-67
2023/12/02 12:30:42;;;;;;;14.05;8.43;;;;;;;;;;5003852;28;20029;-66
2023/12/02 12:33:28;;;;;;;11.98;6.40;;;;;;;;;;5012470;28;20487;-66
2023/12/02 12:36:14;;;;;;;15.77;7.65;;;;;;;;;;5013295;28;20034;-67
2023/12/02 12:39:00;;;;;;;15.02;7.13;;;;;;;;;;5010113;28;20032;-67
2023/12/02 12:41:47;;;;;;;20.23;8.60;;;;;;;;;;5002624;28;20018;-67
2023/12/02 12:44:33;;;;;;;16.73;7.45;;;;;;;;;;5024237;28;20079;-67
2023/12/02 12:47:18;;;;;;;16.13;8.23;;;;;;;;;;5006545;28;20042;-67
2023/12/02 12:50:05;;;;;;;14.38;6.78;;;;;;;;;;5001533;28;20428;-67
2023/12/02 12:52:51;;;;;;;14.85;6.60;;;;;;;;;;4997157;28;20025;-67
2023/12/02 12:55:43;;;;;;;14.25;6.40;;;;;;;;;;5010383;28;20117;-67
2023/12/02 12:58:29;;;;;;;14.00;6.38;;;;;;;;;;4995045;28;20038;-67
2023/12/02 13:01:15;;;;;;;13.57;6.97;;;;;;;;;;5006730;28;20037;-67
2023/12/02 13:04:10;;;;;;;13.23;6.43;;;;;;;;;;5004370;28;20025;-67
2023/12/02 13:07:02;;;;;;;11.85;5.88;;;;;;;;;;4998778;28;20022;-67
2023/12/02 13:09:51;;;;;;;9.10;5.90;;;;;;;;;;5011634;28;20483;-67
2023/12/02 13:12:40;;;;;;;11.10;7.15;;;;;;;;;;4994306;28;20077;-67
2023/12/02 13:15:26;;;;;;;11.15;6.00;;;;;;;;;;5006839;28;20377;-67
2023/12/02 13:18:13;;;;;;;14.52;6.10;;;;;;;;;;5008989;28;20036;-67
2023/12/02 13:20:58;;;;;;;10.77;5.85;;;;;;;;;;5011691;28;20041;-67
2023/12/02 13:23:46;;;;;;;11.38;6.28;;;;;;;;;;5003259;28;20117;-67
2023/12/02 13:26:33;;;;;;;10.93;6.43;;;;;;;;;;5004301;28;20124;-67
2023/12/02 13:29:21;;;;;;;12.80;6.10;;;;;;;;;;4998598;28;20030;-67
2023/12/02 13:32:08;;;;;;;16.85;6.47;;;;;;;;;;4999011;28;20514;-67
2023/12/02 13:35:04;;;;;;;12.05;5.88;;;;;;;;;;4991501;28;20031;-67
2023/12/02 13:37:59;;;;;;;11.57;6.07;;;;;;;;;;4992805;28;20026;-67
2023/12/02 13:41:00;;;;;;;9.57;5.28;;;;;;;;;;4993085;28;20113;-67
2023/12/02 13:43:51;;;;;;;10.32;5.22;;;;;;;;;;4993199;28;20101;-67
2023/12/02 13:46:53;;;;;;;8.43;5.53;;;;;;;;;;4992913;28;20164;-67
2023/12/02 13:49:43;;;;;;;12.07;5.72;;;;;;;;;;4993180;28;20022;-67
2023/12/02 13:52:47;;;;;;;12.50;6.10;;;;;;;;;;4993902;28;20042;-67
2023/12/02 13:55:33;;;;;;;;;;;;;;;;;;4993042;28;20023;-67
2023/12/02 13:58:21;;;;;;;11.07;5.65;;;;;;;;;;4994018;28;20299;-67
2023/12/02 14:01:18;;;;;;;10.25;5.53;;;;;;;;;;4992384;28;20019;-67
2023/12/02 14:04:13;;;;;;;9.63;5.07;;;;;;;;;;4991985;28;20109;-67
2023/12/02 14:07:22;;;;;;;11.80;5.68;;;;;;;;;;4993446;28;20061;-67
2023/12/02 14:10:09;;;;;;;12.35;6.40;;;;;;;;;;4993277;28;20037;-67
2023/12/02 14:13:37;;;;;;;14.02;6.15;;;;;;;;;;5007325;28;20030;-67
2023/12/02 14:17:00;;;;;;;13.23;6.45;;;;;;;;;;4993253;28;20476;-67
2023/12/02 14:20:22;;;;;;;12.38;5.32;;;;;;;;;;4992360;28;20510;-67
2023/12/02 14:23:33;;;;;;;14.05;6.38;;;;;;;;;;4983979;28;20085;-67
2023/12/02 14:27:01;;;;;;;10.25;5.10;;;;;;;;;;4993180;28;20018;-67
2023/12/02 14:29:56;;;;;;;10.13;4.88;;;;;;;;;;4987612;28;20038;-67
2023/12/02 14:33:04;;;;;;;10.50;5.18;;;;;;;;;;4992964;28;20399;-66
2023/12/02 14:36:28;;;;;;;16.15;7.05;;;;;;;;;;5006804;28;20022;-66
2023/12/02 14:39:19;;;;;;;26.42;10.52;;;;;;;;;;4992010;28;20029;-66
2023/12/02 14:42:11;;;;;;;34.90;14.25;;;;;;;;;;4993132;28;20026;-67
2023/12/02 14:44:57;;;;;;;27.10;12.30;;;;;;;;;;4994267;28;20076;-67
2023/12/02 14:47:43;;;;;;;20.63;10.10;;;;;;;;;;4994843;28;20026;-67
2023/12/02 14:50:29;;;;;;;16.15;7.20;;;;;;;;;;4996395;28;20483;-67
2023/12/02 14:53:16;;;;;;;12.05;5.88;;;;;;;;;;4996448;28;20034;-67
2023/12/02 14:56:28;;;;;;;18.00;6.15;;;;;;;;;;4997411;28;20030;-67
2023/12/02 14:59:14;;;;;;;9.68;4.68;;;;;;;;;;4996911;28;20138;-67
2023/12/02 15:02:00;;;;;;;7.43;5.28;;;;;;;;;;4995757;28;20019;-66
2023/12/02 15:04:45;;;;;;;10.15;5.30;;;;;;;;;;4995648;28;20022;-66
2023/12/02 15:07:32;;;;;;;12.50;7.18;;;;;;;;;;4996500;28;20023;-66
2023/12/02 15:10:18;;;;;;;9.57;4.95;;;;;;;;;;4995976;28;20034;-67
2023/12/02 15:13:05;;;;;;;11.55;5.63;;;;;;;;;;4996401;28;20026;-67
2023/12/02 15:15:52;;;;;;;12.60;5.20;;;;;;;;;;4996503;28;20167;-67
2023/12/02 15:18:38;;;;;;;10.50;5.75;;;;;;;;;;4995062;28;20149;-67
2023/12/02 15:21:23;;;;;;;14.65;6.57;;;;;;;;;;4995778;28;20026;-67
2023/12/02 15:24:09;;;;;;;18.05;6.88;;;;;;;;;;4996893;28;20381;-67
2023/12/02 15:26:55;;;;;;;15.93;6.15;;;;;;;;;;4995887;28;20033;-67
2023/12/02 15:29:40;;;;;;;12.25;5.78;;;;;;;;;;4995908;28;20018;-67
2023/12/02 15:32:26;;;;;;;12.00;5.88;;;;;;;;;;4995917;28;20041;-66
2023/12/02 15:35:12;;;;;;;11.05;5.90;;;;;;;;;;4994931;28;20495;-67
2023/12/02 15:37:58;;;;;;;11.23;5.68;;;;;;;;;;4994927;28;20026;-66
2023/12/02 15:40:44;;;;;;;13.30;7.10;;;;;;;;;;4995221;28;20028;-66
2023/12/02 15:43:29;;;;;;;12.98;7.25;;;;;;;;;;4994457;28;20488;-66
2023/12/02 15:46:15;;;;;;;13.60;7.18;;;;;;;;;;4995953;28;20043;-66
2023/12/02 15:49:01;;;;;;;12.43;5.93;;;;;;;;;;4996171;28;20080;-67
2023/12/02 15:51:47;;;;;;;10.95;6.22;;;;;;;;;;4995762;28;20057;-67
2023/12/02 15:54:35;;;;;;;13.02;5.88;;;;;;;;;;4994524;28;20092;-67
2023/12/02 15:57:20;;;;;;;12.32;6.03;;;;;;;;;;4995404;28;20101;-67
2023/12/02 16:00:07;;;;;;;13.30;6.05;;;;;;;;;;4995673;28;20034;-67
2023/12/02 16:02:53;;;;;;;9.77;4.85;;;;;;;;;;4995395;28;20499;-66
2023/12/02 16:05:39;;;;;;;14.73;6.68;;;;;;;;;;4995035;28;20030;-67
2023/12/02 16:08:26;;;;;;;13.43;5.90;;;;;;;;;;4995151;28;20037;-66
2023/12/02 16:11:11;;;;;;;12.93;6.45;;;;;;;;;;5006343;28;20026;-66
2023/12/02 16:14:01;;;;;;;17.08;6.13;;;;;;;;;;5003858;28;20026;-66
2023/12/02 16:16:53;;;;;;;10.43;5.97;;;;;;;;;;4999624;28;20045;-67
2023/12/02 16:19:39;;;;;;;15.15;5.95;;;;;;;;;;5027445;28;20036;-66
2023/12/02 16:22:25;;;;;;;10.35;5.72;;;;;;;;;;5014746;28;20026;-66
2023/12/02 16:25:11;;;;;;;8.82;5.45;;;;;;;;;;5027066;28;20495;-67
2023/12/02 16:27:56;;;;;;;12.68;6.82;;;;;;;;;;5012629;28;20479;-66
2023/12/02 16:30:42;;;;;;;11.70;6.18;;;;;;;;;;5013164;28;20062;-67
2023/12/02 16:33:28;;;;;;;15.23;5.97;;;;;;;;;;5013349;28;20098;-66
2023/12/02 16:36:14;;;;;;;13.65;6.22;;;;;;;;;;4999930;28;20030;-66
2023/12/02 16:38:59;;;;;;;14.73;6.22;;;;;;;;;;5013866;28;20514;-66
2023/12/02 16:41:45;;;;;;;13.15;5.80;;;;;;;;;;5014116;28;20034;-67